createdAt,value
2023-07-26T00:00:24.938Z,99236.94
2023-07-26T00:00:56.795Z,99247.22
2023-07-26T00:01:28.618Z,99241.06
2023-07-26T00:02:00.434Z,99236.94
2023-07-26T00:02:32.509Z,99243.94
2023-07-26T00:03:04.484Z,99239.47
2023-07-26T00:03:36.449Z,99240.97
2023-07-26T00:04:08.488Z,99239.13
2023-07-26T00:04:40.344Z,99230.53
2023-07-26T00:05:12.192Z,99231.06
2023-07-26T00:05:44.007Z,99229.22
2023-07-26T00:06:16.028Z,99228.41
2023-07-26T00:06:48.006Z,99226.41
2023-07-26T00:07:19.881Z,99219.47
2023-07-26T00:07:51.730Z,99221.13
2023-07-26T00:08:23.549Z,99220.28
2023-07-26T00:08:55.362Z,99211.34
2023-07-26T00:09:27.183Z,99210.53
2023-07-26T00:09:59.016Z,99210.53
2023-07-26T00:10:30.832Z,99208.88
2023-07-26T00:11:04.402Z,99212.53
2023-07-26T00:11:37.535Z,99210.88
2023-07-26T00:12:09.394Z,99209.22
2023-07-26T00:12:41.242Z,99218.97
2023-07-26T00:13:13.250Z,99212.53
2023-07-26T00:13:45.096Z,99218.81
2023-07-26T00:14:16.895Z,99219.47
2023-07-26T00:14:48.709Z,99212.34
2023-07-26T00:15:20.544Z,99221.13
2023-07-26T00:15:52.438Z,99211.69
2023-07-26T00:16:24.345Z,99217.00
2023-07-26T00:16:56.608Z,99213.03
2023-07-26T00:17:28.479Z,99214.22
2023-07-26T00:18:00.372Z,99211.22
2023-07-26T00:18:32.249Z,99203.94
2023-07-26T00:19:04.048Z,99208.75
2023-07-26T00:19:35.865Z,99207.41
2023-07-26T00:20:08.335Z,99199.47
2023-07-26T00:20:40.182Z,99199.28
2023-07-26T00:21:12.022Z,99200.13
2023-07-26T00:21:43.841Z,99201.28
2023-07-26T00:22:15.658Z,99198.66
2023-07-26T00:22:47.594Z,99191.53
2023-07-26T00:23:19.381Z,99191.34
2023-07-26T00:23:51.229Z,99183.41
2023-07-26T00:24:23.265Z,99186.88
2023-07-26T00:24:55.445Z,99182.41
2023-07-26T00:25:27.415Z,99183.22
2023-07-26T00:25:59.279Z,99180.75
2023-07-26T00:26:31.403Z,99179.13
2023-07-26T00:27:03.759Z,99182.09
2023-07-26T00:27:35.588Z,99177.81
2023-07-26T00:28:07.424Z,99173.16
2023-07-26T00:28:39.245Z,99168.84
2023-07-26T00:29:11.181Z,99167.22
2023-07-26T00:29:43.018Z,99163.56
2023-07-26T00:30:15.722Z,99164.25
2023-07-26T00:30:49.622Z,99158.97
2023-07-26T00:31:22.370Z,99152.00
2023-07-26T00:31:54.238Z,99154.63
2023-07-26T00:32:26.047Z,99146.06
2023-07-26T00:32:58.006Z,99146.88
2023-07-26T00:33:29.863Z,99140.94
2023-07-26T00:34:01.671Z,99142.75
2023-07-26T00:34:33.478Z,99134.81
2023-07-26T00:35:05.619Z,99135.97
2023-07-26T00:35:41.577Z,99137.53
2023-07-26T00:36:13.458Z,99134.88
2023-07-26T00:36:45.261Z,99137.53
2023-07-26T00:37:17.067Z,99131.22
2023-07-26T00:37:51.254Z,99127.25
2023-07-26T00:38:23.059Z,99126.63
2023-07-26T00:38:54.859Z,99127.97
2023-07-26T00:39:26.674Z,99125.97
2023-07-26T00:39:58.534Z,99123.50
2023-07-26T00:40:30.353Z,99125.50
2023-07-26T00:41:02.217Z,99126.31
2023-07-26T00:41:34.081Z,99122.66
2023-07-26T00:42:06.323Z,99128.97
2023-07-26T00:42:38.141Z,99129.97
2023-07-26T00:43:09.983Z,99124.03
2023-07-26T00:43:41.823Z,99116.09
2023-07-26T00:44:13.639Z,99120.38
2023-07-26T00:44:45.610Z,99115.72
2023-07-26T00:45:17.475Z,99117.38
2023-07-26T00:45:49.764Z,99104.50
2023-07-26T00:46:22.690Z,99109.16
2023-07-26T00:46:55.009Z,99103.03
2023-07-26T00:47:27.081Z,99106.00
2023-07-26T00:47:59.261Z,99111.47
2023-07-26T00:48:32.538Z,99103.38
2023-07-26T00:49:04.481Z,99106.56
2023-07-26T00:49:36.616Z,99107.41
2023-07-26T00:50:09.634Z,99104.94
2023-07-26T00:50:44.429Z,99109.88
2023-07-26T00:51:16.407Z,99115.34
2023-07-26T00:51:48.402Z,99110.25
2023-07-26T00:52:20.377Z,99113.34
2023-07-26T00:52:52.940Z,99114.81
2023-07-26T00:53:25.271Z,99115.63
2023-07-26T00:53:57.068Z,99107.56
2023-07-26T00:54:29.376Z,99104.91
2023-07-26T00:55:03.884Z,99108.19
2023-07-26T00:55:36.344Z,99103.09
2023-07-26T00:56:08.477Z,99101.75
2023-07-26T00:56:40.617Z,99100.63
2023-07-26T00:57:12.479Z,99098.53
2023-07-26T00:57:46.625Z,99102.31
2023-07-26T00:58:18.618Z,99101.19
2023-07-26T00:58:50.744Z,99098.38
2023-07-26T00:59:22.616Z,99099.38
2023-07-26T00:59:54.590Z,99099.56
2023-07-26T01:00:26.618Z,99101.19
2023-07-26T01:00:58.923Z,99098.38
2023-07-26T01:01:30.872Z,99101.19
2023-07-26T01:02:02.903Z,99092.28
2023-07-26T01:02:34.938Z,99087.47
2023-07-26T01:03:07.100Z,99090.31
2023-07-26T01:03:38.929Z,99089.13
2023-07-26T01:04:10.753Z,99086.47
2023-07-26T01:04:42.575Z,99084.03
2023-07-26T01:05:14.992Z,99083.69
2023-07-26T01:06:17.592Z,99087.66
2023-07-26T01:07:29.905Z,99088.69
2023-07-26T01:08:35.961Z,99083.88
2023-07-26T01:09:13.885Z,99074.94
2023-07-26T01:10:06.271Z,99073.13
2023-07-26T01:10:47.761Z,99076.44
2023-07-26T01:11:32.083Z,99072.97
2023-07-26T01:12:11.212Z,99066.88
2023-07-26T01:12:56.229Z,99061.44
2023-07-26T01:14:11.181Z,99053.38
2023-07-26T01:15:07.563Z,99052.00
2023-07-26T01:15:42.901Z,99052.38
2023-07-26T01:16:15.013Z,99055.66
2023-07-26T01:16:47.983Z,99057.47
2023-07-26T01:17:19.826Z,99053.19
2023-07-26T01:18:11.621Z,99061.75
2023-07-26T01:18:43.420Z,99069.38
2023-07-26T01:19:15.248Z,99065.91
2023-07-26T01:19:47.100Z,99078.94
2023-07-26T01:20:18.967Z,99075.31
2023-07-26T01:20:50.777Z,99080.22
2023-07-26T01:21:22.592Z,99067.00
2023-07-26T01:21:54.404Z,99073.97
2023-07-26T01:22:26.223Z,99070.47
2023-07-26T01:22:58.028Z,99077.44
2023-07-26T01:23:29.823Z,99073.97
2023-07-26T01:24:01.721Z,99076.25
2023-07-26T01:24:34.062Z,99070.16
2023-07-26T01:25:06.691Z,99071.63
2023-07-26T01:25:38.525Z,99077.25
2023-07-26T01:26:10.361Z,99064.88
2023-07-26T01:26:42.217Z,99072.63
2023-07-26T01:27:14.176Z,99069.34
2023-07-26T01:27:45.963Z,99061.56
2023-07-26T01:28:17.850Z,99053.78
2023-07-26T01:28:49.772Z,99055.34
2023-07-26T01:29:22.358Z,99051.69
2023-07-26T01:29:57.314Z,99051.69
2023-07-26T01:30:32.115Z,99042.75
2023-07-26T01:31:07.570Z,99042.25
2023-07-26T01:31:39.822Z,99041.78
2023-07-26T01:32:15.573Z,99042.44
2023-07-26T01:32:52.677Z,99042.94
2023-07-26T01:33:28.321Z,99045.41
2023-07-26T01:34:02.885Z,99039.78
2023-07-26T01:34:35.884Z,99044.25
2023-07-26T01:35:08.887Z,99051.69
2023-07-26T01:35:41.848Z,99045.22
2023-07-26T01:36:13.920Z,99050.19
2023-07-26T01:36:46.487Z,99053.47
2023-07-26T01:37:20.734Z,99054.28
2023-07-26T01:37:55.936Z,99057.75
2023-07-26T01:38:30.347Z,99062.22
2023-07-26T01:39:04.000Z,99065.03
2023-07-26T01:39:36.162Z,99064.38
2023-07-26T01:40:09.215Z,99067.84
2023-07-26T01:40:42.412Z,99071.97
2023-07-26T01:41:16.824Z,99068.69
2023-07-26T01:41:49.234Z,99069.66
2023-07-26T01:42:21.614Z,99067.00
2023-07-26T01:42:54.312Z,99072.97
2023-07-26T01:43:26.605Z,99066.50
2023-07-26T01:43:58.417Z,99068.34
2023-07-26T01:44:38.684Z,99069.34
2023-07-26T01:45:10.836Z,99070.97
2023-07-26T01:45:42.682Z,99074.25
2023-07-26T01:46:15.395Z,99075.91
2023-07-26T01:46:47.516Z,99083.84
2023-07-26T01:47:19.577Z,99085.03
2023-07-26T01:47:53.930Z,99080.56
2023-07-26T01:48:25.774Z,99090.81
2023-07-26T01:48:57.785Z,99097.06
2023-07-26T01:49:29.639Z,99093.44
2023-07-26T01:50:01.738Z,99097.06
2023-07-26T01:50:33.581Z,99100.56
2023-07-26T01:51:05.719Z,99091.97
2023-07-26T01:51:37.562Z,99097.91
2023-07-26T01:52:09.379Z,99101.06
2023-07-26T01:52:41.195Z,99098.59
2023-07-26T01:53:13.094Z,99101.06
2023-07-26T01:53:45.042Z,99097.09
2023-07-26T01:54:17.438Z,99102.06
2023-07-26T01:54:49.277Z,99112.63
2023-07-26T01:55:21.087Z,99105.53
2023-07-26T01:55:52.925Z,99109.00
2023-07-26T01:56:25.032Z,99103.88
2023-07-26T01:56:56.907Z,99107.03
2023-07-26T01:57:28.895Z,99111.00
2023-07-26T01:58:00.723Z,99113.63
2023-07-26T01:58:32.531Z,99108.53
2023-07-26T01:59:04.620Z,99110.03
2023-07-26T01:59:36.429Z,99113.31
2023-07-26T02:00:09.045Z,99116.59
2023-07-26T02:00:43.747Z,99118.25
2023-07-26T02:01:15.556Z,99117.59
2023-07-26T02:01:47.400Z,99114.31
2023-07-26T02:02:19.458Z,99126.84
2023-07-26T02:02:51.323Z,99126.72
2023-07-26T02:03:23.547Z,99117.94
2023-07-26T02:03:55.379Z,99116.94
2023-07-26T02:04:27.715Z,99125.06
2023-07-26T02:04:59.678Z,99124.06
2023-07-26T02:05:31.550Z,99122.56
2023-07-26T02:06:03.402Z,99128.66
2023-07-26T02:06:35.244Z,99125.06
2023-07-26T02:07:07.110Z,99118.28
2023-07-26T02:07:39.139Z,99123.38
2023-07-26T02:08:11.244Z,99124.56
2023-07-26T02:08:43.148Z,99122.75
2023-07-26T02:09:14.967Z,99128.53
2023-07-26T02:09:46.785Z,99123.25
2023-07-26T02:10:18.663Z,99133.81
2023-07-26T02:10:50.464Z,99132.81
2023-07-26T02:11:22.280Z,99129.66
2023-07-26T02:11:54.108Z,99125.56
2023-07-26T02:12:26.071Z,99131.50
2023-07-26T02:12:57.899Z,99131.16
2023-07-26T02:13:29.720Z,99134.28
2023-07-26T02:14:01.546Z,99134.47
2023-07-26T02:14:33.393Z,99132.63
2023-07-26T02:15:06.669Z,99130.63
2023-07-26T02:15:38.498Z,99128.00
2023-07-26T02:16:10.364Z,99126.19
2023-07-26T02:16:42.253Z,99125.88
2023-07-26T02:17:14.116Z,99127.53
2023-07-26T02:17:45.972Z,99133.00
2023-07-26T02:18:18.005Z,99135.63
2023-07-26T02:18:49.818Z,99138.28
2023-07-26T02:19:22.003Z,99135.47
2023-07-26T02:19:53.841Z,99143.38
2023-07-26T02:20:25.675Z,99139.09
2023-07-26T02:20:57.494Z,99138.94
2023-07-26T02:21:29.341Z,99144.22
2023-07-26T02:22:01.209Z,99141.56
2023-07-26T02:22:33.078Z,99139.56
2023-07-26T02:23:04.901Z,99140.56
2023-07-26T02:23:36.812Z,99149.16
2023-07-26T02:24:08.618Z,99143.22
2023-07-26T02:24:40.552Z,99152.97
2023-07-26T02:25:12.780Z,99147.03
2023-07-26T02:25:45.754Z,99137.94
2023-07-26T02:26:17.580Z,99149.66
2023-07-26T02:26:49.411Z,99148.00
2023-07-26T02:27:21.262Z,99138.09
2023-07-26T02:27:53.082Z,99145.22
2023-07-26T02:28:24.908Z,99148.50
2023-07-26T02:28:56.768Z,99147.31
2023-07-26T02:29:28.675Z,99145.69
2023-07-26T02:30:00.533Z,99141.41
2023-07-26T02:30:32.335Z,99150.50
2023-07-26T02:31:04.210Z,99147.19
2023-07-26T02:31:36.214Z,99148.16
2023-07-26T02:32:11.108Z,99150.00
2023-07-26T02:32:43.000Z,99156.94
2023-07-26T02:33:14.841Z,99153.13
2023-07-26T02:33:46.723Z,99148.69
2023-07-26T02:34:18.541Z,99150.16
2023-07-26T02:34:50.368Z,99150.78
2023-07-26T02:35:22.239Z,99152.63
2023-07-26T02:35:54.132Z,99156.25
2023-07-26T02:36:26.413Z,99152.16
2023-07-26T02:36:58.238Z,99148.69
2023-07-26T02:37:30.246Z,99153.97
2023-07-26T02:38:02.080Z,99153.78
2023-07-26T02:38:33.885Z,99149.81
2023-07-26T02:39:05.742Z,99149.50
2023-07-26T02:39:37.565Z,99140.91
2023-07-26T02:40:09.878Z,99146.22
2023-07-26T02:40:42.070Z,99133.81
2023-07-26T02:41:13.897Z,99138.09
2023-07-26T02:41:45.771Z,99132.63
2023-07-26T02:42:17.862Z,99138.75
2023-07-26T02:42:49.703Z,99130.16
2023-07-26T02:43:30.892Z,99133.81
2023-07-26T02:44:10.733Z,99131.50
2023-07-26T02:44:42.543Z,99132.50
2023-07-26T02:45:14.363Z,99126.56
2023-07-26T02:45:46.210Z,99132.50
2023-07-26T02:46:18.070Z,99132.50
2023-07-26T02:46:49.939Z,99132.50
2023-07-26T02:47:21.961Z,99130.84
2023-07-26T02:47:53.824Z,99128.38
2023-07-26T02:48:25.634Z,99127.19
2023-07-26T02:48:57.449Z,99133.97
2023-07-26T02:49:29.266Z,99131.31
2023-07-26T02:50:02.727Z,99130.03
2023-07-26T02:50:34.920Z,99133.66
2023-07-26T02:51:06.795Z,99125.56
2023-07-26T02:51:38.737Z,99123.75
2023-07-26T02:52:10.543Z,99122.25
2023-07-26T02:52:42.377Z,99122.09
2023-07-26T02:53:14.183Z,99127.56
2023-07-26T02:53:46.019Z,99125.06
2023-07-26T02:54:17.855Z,99118.31
2023-07-26T02:54:49.773Z,99123.41
2023-07-26T02:55:21.599Z,99121.59
2023-07-26T02:55:53.470Z,99119.75
2023-07-26T02:56:25.319Z,99127.06
2023-07-26T02:56:57.145Z,99125.06
2023-07-26T02:57:29.024Z,99129.88
2023-07-26T02:58:01.552Z,99124.59
2023-07-26T02:58:33.353Z,99122.94
2023-07-26T02:59:05.178Z,99123.13
2023-07-26T02:59:37.011Z,99122.44
2023-07-26T03:00:09.531Z,99119.94
2023-07-26T03:00:41.353Z,99115.47
2023-07-26T03:01:13.229Z,99116.28
2023-07-26T03:01:46.045Z,99115.66
2023-07-26T03:02:17.923Z,99114.00
2023-07-26T03:02:49.803Z,99114.00
2023-07-26T03:03:21.935Z,99118.28
2023-07-26T03:03:53.971Z,99117.47
2023-07-26T03:04:25.793Z,99114.50
2023-07-26T03:04:57.612Z,99116.50
2023-07-26T03:05:30.031Z,99123.44
2023-07-26T03:06:01.853Z,99114.03
2023-07-26T03:06:33.708Z,99118.97
2023-07-26T03:07:05.772Z,99123.44
2023-07-26T03:07:37.622Z,99117.97
2023-07-26T03:08:09.468Z,99117.81
2023-07-26T03:08:41.784Z,99116.16
2023-07-26T03:09:13.609Z,99117.00
2023-07-26T03:09:45.477Z,99111.03
2023-07-26T03:10:18.310Z,99113.69
2023-07-26T03:10:52.702Z,99113.03
2023-07-26T03:11:24.509Z,99114.66
2023-07-26T03:11:56.912Z,99112.19
2023-07-26T03:12:29.116Z,99113.53
2023-07-26T03:13:00.980Z,99116.03
2023-07-26T03:13:32.788Z,99118.66
2023-07-26T03:14:04.728Z,99125.59
2023-07-26T03:14:41.850Z,99122.28
2023-07-26T03:15:13.999Z,99123.25
2023-07-26T03:15:46.341Z,99118.81
2023-07-26T03:16:18.703Z,99117.97
2023-07-26T03:16:50.556Z,99116.69
2023-07-26T03:17:23.502Z,99116.69
2023-07-26T03:17:55.757Z,99111.22
2023-07-26T03:18:27.578Z,99117.97
2023-07-26T03:18:59.407Z,99110.22
2023-07-26T03:19:31.213Z,99113.03
2023-07-26T03:20:04.393Z,99117.97
2023-07-26T03:20:36.274Z,99117.34
2023-07-26T03:21:08.222Z,99113.03
2023-07-26T03:21:40.074Z,99115.03
2023-07-26T03:22:11.895Z,99108.94
2023-07-26T03:22:43.706Z,99115.03
2023-07-26T03:23:15.719Z,99108.94
2023-07-26T03:23:47.531Z,99116.00
2023-07-26T03:24:19.349Z,99113.38
2023-07-26T03:24:51.224Z,99124.09
2023-07-26T03:25:23.054Z,99118.34
2023-07-26T03:25:55.905Z,99121.81
2023-07-26T03:26:27.712Z,99122.13
2023-07-26T03:26:59.630Z,99125.75
2023-07-26T03:27:31.432Z,99131.88
2023-07-26T03:28:04.918Z,99130.72
2023-07-26T03:28:36.755Z,99132.56
2023-07-26T03:29:08.579Z,99131.88
2023-07-26T03:29:40.405Z,99132.56
2023-07-26T03:30:12.671Z,99142.78
2023-07-26T03:30:44.510Z,99135.03
2023-07-26T03:31:16.341Z,99142.28
2023-07-26T03:31:48.152Z,99142.78
2023-07-26T03:32:19.985Z,99144.41
2023-07-26T03:32:51.835Z,99149.41
2023-07-26T03:33:24.659Z,99147.25
2023-07-26T03:33:56.573Z,99144.59
2023-07-26T03:34:28.461Z,99144.13
2023-07-26T03:35:00.349Z,99144.13
2023-07-26T03:35:32.412Z,99152.69
2023-07-26T03:36:04.576Z,99145.06
2023-07-26T03:36:36.443Z,99150.03
2023-07-26T03:37:09.409Z,99155.97
2023-07-26T03:37:41.240Z,99156.63
2023-07-26T03:38:13.069Z,99154.16
2023-07-26T03:38:44.897Z,99154.81
2023-07-26T03:39:16.749Z,99167.72
2023-07-26T03:39:48.601Z,99167.72
2023-07-26T03:40:21.135Z,99162.75
2023-07-26T03:40:52.957Z,99173.16
2023-07-26T03:41:24.767Z,99172.81
2023-07-26T03:41:56.590Z,99169.53
2023-07-26T03:42:29.188Z,99177.47
2023-07-26T03:43:01.079Z,99175.13
2023-07-26T03:43:32.887Z,99176.94
2023-07-26T03:44:04.821Z,99187.34
2023-07-26T03:44:36.723Z,99181.41
2023-07-26T03:45:08.741Z,99185.69
2023-07-26T03:45:41.859Z,99187.34
2023-07-26T03:46:13.852Z,99189.50
2023-07-26T03:46:45.779Z,99188.34
2023-07-26T03:47:17.592Z,99189.03
2023-07-26T03:47:49.496Z,99187.03
2023-07-26T03:48:21.334Z,99189.16
2023-07-26T03:48:53.150Z,99189.16
2023-07-26T03:49:24.982Z,99185.38
2023-07-26T03:49:56.856Z,99193.44
2023-07-26T03:50:28.737Z,99201.06
2023-07-26T03:51:00.568Z,99200.91
2023-07-26T03:51:32.486Z,99189.50
2023-07-26T03:52:05.903Z,99188.84
2023-07-26T03:52:37.757Z,99194.13
2023-07-26T03:53:09.595Z,99188.69
2023-07-26T03:53:41.433Z,99191.81
2023-07-26T03:54:13.248Z,99194.97
2023-07-26T03:54:46.473Z,99186.34
2023-07-26T03:55:18.291Z,99190.97
2023-07-26T03:55:50.116Z,99191.63
2023-07-26T03:56:21.946Z,99185.53
2023-07-26T03:56:53.759Z,99190.16
2023-07-26T03:57:25.601Z,99189.69
2023-07-26T03:57:59.025Z,99192.31
2023-07-26T03:58:30.840Z,99188.00
2023-07-26T03:59:03.500Z,99182.56
2023-07-26T03:59:35.318Z,99186.88
2023-07-26T04:00:07.681Z,99188.34
2023-07-26T04:00:39.577Z,99180.75
2023-07-26T04:01:11.403Z,99191.50
2023-07-26T04:01:43.260Z,99184.41
2023-07-26T04:02:15.123Z,99187.84
2023-07-26T04:02:47.140Z,99191.50
2023-07-26T04:03:19.337Z,99186.69
2023-07-26T04:03:51.389Z,99190.81
2023-07-26T04:04:23.248Z,99190.16
2023-07-26T04:04:55.051Z,99192.63
2023-07-26T04:05:26.886Z,99192.63
2023-07-26T04:05:58.722Z,99197.25
2023-07-26T04:06:30.987Z,99187.34
2023-07-26T04:07:05.952Z,99183.22
2023-07-26T04:07:40.368Z,99186.69
2023-07-26T04:08:12.180Z,99195.09
2023-07-26T04:08:44.001Z,99185.69
2023-07-26T04:09:15.823Z,99190.63
2023-07-26T04:09:47.728Z,99191.63
2023-07-26T04:10:19.672Z,99189.00
2023-07-26T04:10:51.486Z,99187.50
2023-07-26T04:11:23.303Z,99198.91
2023-07-26T04:11:58.296Z,99191.63
2023-07-26T04:12:30.127Z,99201.53
2023-07-26T04:13:01.953Z,99196.78
2023-07-26T04:13:34.621Z,99197.59
2023-07-26T04:14:06.413Z,99201.19
2023-07-26T04:14:38.284Z,99202.72
2023-07-26T04:15:10.606Z,99198.41
2023-07-26T04:15:42.478Z,99202.88
2023-07-26T04:16:14.467Z,99204.84
2023-07-26T04:16:46.293Z,99202.53
2023-07-26T04:17:18.855Z,99196.25
2023-07-26T04:17:50.797Z,99197.25
2023-07-26T04:18:22.678Z,99200.88
2023-07-26T04:18:54.689Z,99206.16
2023-07-26T04:19:26.507Z,99205.50
2023-07-26T04:19:58.357Z,99208.28
2023-07-26T04:20:30.166Z,99209.28
2023-07-26T04:21:01.961Z,99202.34
2023-07-26T04:21:33.754Z,99202.69
2023-07-26T04:22:05.762Z,99204.81
2023-07-26T04:22:37.614Z,99205.81
2023-07-26T04:23:09.467Z,99209.13
2023-07-26T04:23:41.910Z,99202.03
2023-07-26T04:24:13.759Z,99208.97
2023-07-26T04:24:46.207Z,99205.34
2023-07-26T04:25:18.058Z,99219.19
2023-07-26T04:25:53.001Z,99207.63
2023-07-26T04:26:24.821Z,99208.94
2023-07-26T04:26:56.738Z,99210.75
2023-07-26T04:27:28.576Z,99207.47
2023-07-26T04:28:00.380Z,99210.78
2023-07-26T04:28:32.217Z,99205.16
2023-07-26T04:29:04.040Z,99207.47
2023-07-26T04:29:35.935Z,99212.09
2023-07-26T04:30:08.305Z,99206.16
2023-07-26T04:30:40.184Z,99205.00
2023-07-26T04:31:12.124Z,99206.34
2023-07-26T04:31:43.974Z,99204.16
2023-07-26T04:32:15.832Z,99202.34
2023-07-26T04:32:47.676Z,99203.69
2023-07-26T04:33:19.569Z,99201.53
2023-07-26T04:33:51.626Z,99196.44
2023-07-26T04:34:23.499Z,99198.25
2023-07-26T04:34:55.359Z,99199.72
2023-07-26T04:35:27.158Z,99196.91
2023-07-26T04:35:59.058Z,99194.25
2023-07-26T04:36:31.264Z,99190.81
2023-07-26T04:37:03.350Z,99194.25
2023-07-26T04:37:35.839Z,99190.63
2023-07-26T04:38:07.652Z,99194.59
2023-07-26T04:38:39.509Z,99199.53
2023-07-26T04:39:11.315Z,99194.63
2023-07-26T04:39:43.134Z,99199.06
2023-07-26T04:40:14.957Z,99199.91
2023-07-26T04:40:48.933Z,99204.34
2023-07-26T04:41:20.725Z,99198.06
2023-07-26T04:41:52.548Z,99202.19
2023-07-26T04:42:24.360Z,99206.34
2023-07-26T04:42:56.154Z,99205.81
2023-07-26T04:43:27.996Z,99203.00
2023-07-26T04:43:59.793Z,99202.03
2023-07-26T04:44:31.643Z,99208.97
2023-07-26T04:45:03.706Z,99205.19
2023-07-26T04:45:35.521Z,99205.81
2023-07-26T04:46:07.338Z,99199.56
2023-07-26T04:46:39.209Z,99198.41
2023-07-26T04:47:11.056Z,99205.53
2023-07-26T04:47:42.949Z,99202.72
2023-07-26T04:48:15.864Z,99197.91
2023-07-26T04:48:48.191Z,99192.31
2023-07-26T04:49:20.005Z,99200.38
2023-07-26T04:49:52.023Z,99198.91
2023-07-26T04:50:23.835Z,99199.06
2023-07-26T04:50:55.711Z,99196.09
2023-07-26T04:51:27.522Z,99203.38
2023-07-26T04:51:59.369Z,99206.16
2023-07-26T04:52:31.268Z,99198.25
2023-07-26T04:53:03.186Z,99197.91
2023-07-26T04:53:35.068Z,99198.09
2023-07-26T04:54:06.960Z,99199.91
2023-07-26T04:54:38.805Z,99197.75
2023-07-26T04:55:10.631Z,99196.91
2023-07-26T04:55:47.960Z,99191.81
2023-07-26T04:56:19.802Z,99197.25
2023-07-26T04:56:51.651Z,99189.16
2023-07-26T04:57:23.518Z,99188.16
2023-07-26T04:57:55.342Z,99188.34
2023-07-26T04:58:27.187Z,99195.97
2023-07-26T04:58:59.017Z,99195.28
2023-07-26T04:59:30.864Z,99202.53
2023-07-26T05:00:02.695Z,99201.53
2023-07-26T05:00:34.534Z,99197.59
2023-07-26T05:01:06.389Z,99196.59
2023-07-26T05:01:38.207Z,99199.91
2023-07-26T05:02:10.048Z,99191.66
2023-07-26T05:02:41.949Z,99196.59
2023-07-26T05:03:14.393Z,99194.63
2023-07-26T05:03:46.281Z,99190.81
2023-07-26T05:04:18.197Z,99188.50
2023-07-26T05:04:50.033Z,99193.47
2023-07-26T05:05:21.916Z,99193.31
2023-07-26T05:05:53.817Z,99193.47
2023-07-26T05:06:25.694Z,99198.22
2023-07-26T05:06:57.560Z,99195.75
2023-07-26T05:07:29.369Z,99183.91
2023-07-26T05:08:02.328Z,99185.69
2023-07-26T05:08:35.245Z,99194.78
2023-07-26T05:09:07.162Z,99188.19
2023-07-26T05:09:38.978Z,99183.38
2023-07-26T05:10:10.949Z,99186.38
2023-07-26T05:10:42.824Z,99181.09
2023-07-26T05:11:15.606Z,99187.53
2023-07-26T05:11:47.412Z,99182.72
2023-07-26T05:12:19.255Z,99180.75
2023-07-26T05:12:51.608Z,99186.53
2023-07-26T05:13:25.141Z,99188.81
2023-07-26T05:13:56.977Z,99191.16
2023-07-26T05:14:28.847Z,99194.47
2023-07-26T05:15:00.688Z,99199.91
2023-07-26T05:15:32.553Z,99196.28
2023-07-26T05:16:04.508Z,99196.09
2023-07-26T05:16:36.392Z,99202.69
2023-07-26T05:17:08.468Z,99205.22
2023-07-26T05:17:40.309Z,99205.69
2023-07-26T05:18:12.267Z,99203.88
2023-07-26T05:18:44.190Z,99214.44
2023-07-26T05:19:16.003Z,99209.50
2023-07-26T05:19:47.827Z,99212.97
2023-07-26T05:20:19.700Z,99210.47
2023-07-26T05:20:52.429Z,99212.78
2023-07-26T05:21:24.277Z,99207.66
2023-07-26T05:21:56.105Z,99212.44
2023-07-26T05:22:27.925Z,99205.34
2023-07-26T05:22:59.738Z,99207.69
2023-07-26T05:23:31.555Z,99208.31
2023-07-26T05:24:03.414Z,99205.69
2023-07-26T05:24:35.363Z,99203.88
2023-07-26T05:25:07.899Z,99205.84
2023-07-26T05:25:41.319Z,99203.03
2023-07-26T05:26:13.138Z,99198.59
2023-07-26T05:26:44.964Z,99205.03
2023-07-26T05:27:16.815Z,99204.50
2023-07-26T05:27:48.819Z,99213.78
2023-07-26T05:28:22.458Z,99214.44
2023-07-26T05:28:55.380Z,99208.16
2023-07-26T05:29:27.260Z,99211.16
2023-07-26T05:29:59.464Z,99200.56
2023-07-26T05:30:31.323Z,99212.97
2023-07-26T05:31:03.264Z,99203.69
2023-07-26T05:31:35.365Z,99198.91
2023-07-26T05:32:08.215Z,99215.09
2023-07-26T05:32:40.112Z,99209.16
2023-07-26T05:33:11.968Z,99207.16
2023-07-26T05:33:43.789Z,99214.09
2023-07-26T05:34:16.936Z,99210.16
2023-07-26T05:34:48.862Z,99211.78
2023-07-26T05:35:20.686Z,99219.06
2023-07-26T05:35:52.542Z,99222.53
2023-07-26T05:36:24.357Z,99223.34
2023-07-26T05:36:56.182Z,99215.25
2023-07-26T05:37:28.018Z,99230.94
2023-07-26T05:37:59.993Z,99225.31
2023-07-26T05:38:31.829Z,99229.59
2023-07-26T05:39:03.700Z,99219.38
2023-07-26T05:39:35.500Z,99228.78
2023-07-26T05:40:08.126Z,99227.66
2023-07-26T05:40:39.949Z,99226.00
2023-07-26T05:41:11.770Z,99222.69
2023-07-26T05:41:43.600Z,99225.66
2023-07-26T05:42:15.495Z,99223.66
2023-07-26T05:42:47.339Z,99232.59
2023-07-26T05:43:19.931Z,99229.28
2023-07-26T05:43:51.757Z,99223.66
2023-07-26T05:44:23.620Z,99236.06
2023-07-26T05:44:55.430Z,99228.78
2023-07-26T05:45:27.265Z,99235.06
2023-07-26T05:45:59.200Z,99246.16
2023-07-26T05:46:31.126Z,99231.94
2023-07-26T05:47:03.052Z,99235.56
2023-07-26T05:47:39.060Z,99235.56
2023-07-26T05:48:11.037Z,99240.53
2023-07-26T05:48:42.909Z,99240.19
2023-07-26T05:49:14.801Z,99242.16
2023-07-26T05:49:46.637Z,99230.47
2023-07-26T05:50:18.446Z,99229.94
2023-07-26T05:50:50.266Z,99240.19
2023-07-26T05:51:22.096Z,99236.88
2023-07-26T05:51:54.845Z,99234.25
2023-07-26T05:52:26.732Z,99243.34
2023-07-26T05:52:58.555Z,99233.59
2023-07-26T05:53:30.352Z,99241.84
2023-07-26T05:54:02.213Z,99244.81
2023-07-26T05:54:34.019Z,99244.81
2023-07-26T05:55:07.052Z,99244.81
2023-07-26T05:55:38.881Z,99244.81
2023-07-26T05:56:11.689Z,99250.44
2023-07-26T05:56:43.527Z,99253.06
2023-07-26T05:57:15.364Z,99253.56
2023-07-26T05:57:47.229Z,99246.31
2023-07-26T05:58:19.133Z,99253.06
2023-07-26T05:58:52.268Z,99246.63
2023-07-26T05:59:24.390Z,99251.09
2023-07-26T05:59:56.450Z,99255.06
2023-07-26T06:00:28.400Z,99252.56
2023-07-26T06:01:00.267Z,99257.72
2023-07-26T06:01:33.161Z,99265.13
2023-07-26T06:02:06.058Z,99261.81
2023-07-26T06:02:38.006Z,99261.34
2023-07-26T06:03:09.966Z,99261.47
2023-07-26T06:03:43.700Z,99268.41
2023-07-26T06:04:15.549Z,99258.03
2023-07-26T06:04:48.344Z,99263.81
2023-07-26T06:05:20.309Z,99261.81
2023-07-26T06:05:52.351Z,99267.13
2023-07-26T06:06:24.217Z,99272.56
2023-07-26T06:06:57.112Z,99276.34
2023-07-26T06:07:28.978Z,99271.56
2023-07-26T06:08:00.837Z,99266.63
2023-07-26T06:08:33.221Z,99265.63
2023-07-26T06:09:06.496Z,99269.94
2023-07-26T06:09:38.349Z,99270.41
2023-07-26T06:10:10.380Z,99267.59
2023-07-26T06:10:42.337Z,99272.88
2023-07-26T06:11:14.272Z,99269.59
2023-07-26T06:11:55.614Z,99275.53
2023-07-26T06:12:28.810Z,99270.22
2023-07-26T06:13:01.524Z,99273.88
2023-07-26T06:13:33.393Z,99275.22
2023-07-26T06:14:05.233Z,99269.94
2023-07-26T06:14:37.380Z,99280.16
2023-07-26T06:15:09.543Z,99278.34
2023-07-26T06:15:42.232Z,99273.06
2023-07-26T06:16:14.144Z,99278.84
2023-07-26T06:16:46.154Z,99275.22
2023-07-26T06:17:18.271Z,99268.28
2023-07-26T06:17:50.273Z,99274.38
2023-07-26T06:18:22.141Z,99270.09
2023-07-26T06:18:54.157Z,99269.41
2023-07-26T06:19:26.015Z,99266.94
2023-07-26T06:19:57.840Z,99260.84
2023-07-26T06:20:29.685Z,99266.63
2023-07-26T06:21:01.504Z,99267.47
2023-07-26T06:21:35.225Z,99264.47
2023-07-26T06:22:07.943Z,99265.16
2023-07-26T06:22:39.771Z,99268.94